sensor_id;sensor_type;location;lat;lon;timestamp;P1;durP1;ratioP1;P2;durP2;ratioP2
11247;SDS011;5681;53.316;13.950;2023-04-30T00:01:51;9.90;;;2.80;;
11247;SDS011;5681;53.316;13.950;2023-04-30T00:04:18;7.53;;;2.70;;
11247;SDS011;5681;53.316;13.950;2023-04-30T00:06:44;9.60;;;2.70;;
11247;SDS011;5681;53.316;13.950;2023-04-30T00:09:10;9.60;;;2.77;;
11247;SDS011;5681;53.316;13.950;2023-04-30T00:11:37;8.17;;;2.80;;
11247;SDS011;5681;53.316;13.950;2023-04-30T00:14:03;5.70;;;2.90;;
11247;SDS011;5681;53.316;13.950;2023-04-30T00:16:33;8.20;;;2.70;;
11247;SDS011;5681;53.316;13.950;2023-04-30T00:19:00;13.17;;;3.40;;
11247;SDS011;5681;53.316;13.950;2023-04-30T00:21:27;6.53;;;2.60;;
11247;SDS011;5681;53.316;13.950;2023-04-30T00:23:53;9.70;;;2.73;;
11247;SDS011;5681;53.316;13.950;2023-04-30T00:26:19;7.27;;;2.90;;
11247;SDS011;5681;53.316;13.950;2023-04-30T00:28:45;14.07;;;3.40;;
11247;SDS011;5681;53.316;13.950;2023-04-30T00:31:12;9.20;;;2.87;;
11247;SDS011;5681;53.316;13.950;2023-04-30T00:33:38;8.20;;;2.63;;
11247;SDS011;5681;53.316;13.950;2023-04-30T00:36:06;10.27;;;2.73;;
11247;SDS011;5681;53.316;13.950;2023-04-30T00:38:32;5.47;;;2.80;;
11247;SDS011;5681;53.316;13.950;2023-04-30T00:40:58;8.73;;;2.70;;
11247;SDS011;5681;53.316;13.950;2023-04-30T00:43:25;12.77;;;2.67;;
11247;SDS011;5681;53.316;13.950;2023-04-30T00:45:51;9.73;;;3.20;;
11247;SDS011;5681;53.316;13.950;2023-04-30T00:48:20;12.80;;;3.03;;
11247;SDS011;5681;53.316;13.950;2023-04-30T00:50:46;6.37;;;2.57;;
11247;SDS011;5681;53.316;13.950;2023-04-30T00:53:14;6.60;;;3.00;;
11247;SDS011;5681;53.316;13.950;2023-04-30T00:55:40;14.20;;;3.20;;
11247;SDS011;5681;53.316;13.950;2023-04-30T00:58:07;9.73;;;2.90;;
11247;SDS011;5681;53.316;13.950;2023-04-30T01:00:33;8.50;;;2.80;;
11247;SDS011;5681;53.316;13.950;2023-04-30T01:03:00;9.13;;;3.17;;
11247;SDS011;5681;53.316;13.950;2023-04-30T01:05:26;9.87;;;3.10;;
11247;SDS011;5681;53.316;13.950;2023-04-30T01:07:52;9.27;;;2.87;;
11247;SDS011;5681;53.316;13.950;2023-04-30T01:10:21;7.00;;;3.13;;
11247;SDS011;5681;53.316;13.950;2023-04-30T01:12:49;6.97;;;2.90;;
11247;SDS011;5681;53.316;13.950;2023-04-30T01:15:22;11.57;;;3.07;;
11247;SDS011;5681;53.316;13.950;2023-04-30T01:17:53;7.23;;;3.00;;
11247;SDS011;5681;53.316;13.950;2023-04-30T01:20:21;8.90;;;2.90;;
11247;SDS011;5681;53.316;13.950;2023-04-30T01:22:49;9.07;;;2.87;;
11247;SDS011;5681;53.316;13.950;2023-04-30T01:25:32;9.10;;;3.20;;
11247;SDS011;5681;53.316;13.950;2023-04-30T01:28:03;7.27;;;3.00;;
11247;SDS011;5681;53.316;13.950;2023-04-30T01:30:31;8.87;;;3.20;;
11247;SDS011;5681;53.316;13.950;2023-04-30T01:32:58;10.73;;;3.23;;
11247;SDS011;5681;53.316;13.950;2023-04-30T01:35:26;9.00;;;3.57;;
11247;SDS011;5681;53.316;13.950;2023-04-30T01:38:06;10.47;;;3.13;;
11247;SDS011;5681;53.316;13.950;2023-04-30T01:40:39;11.13;;;3.60;;
11247;SDS011;5681;53.316;13.950;2023-04-30T01:43:10;9.67;;;3.33;;
11247;SDS011;5681;53.316;13.950;2023-04-30T01:45:44;10.87;;;3.80;;
11247;SDS011;5681;53.316;13.950;2023-04-30T01:48:18;9.50;;;3.40;;
11247;SDS011;5681;53.316;13.950;2023-04-30T01:51:04;8.73;;;3.43;;
11247;SDS011;5681;53.316;13.950;2023-04-30T01:53:36;8.40;;;3.50;;
11247;SDS011;5681;53.316;13.950;2023-04-30T01:56:06;9.83;;;4.00;;
11247;SDS011;5681;53.316;13.950;2023-04-30T01:58:36;13.27;;;4.17;;
11247;SDS011;5681;53.316;13.950;2023-04-30T02:01:03;10.67;;;3.23;;
11247;SDS011;5681;53.316;13.950;2023-04-30T02:03:31;8.33;;;3.77;;
11247;SDS011;5681;53.316;13.950;2023-04-30T02:05:57;10.23;;;3.57;;
11247;SDS011;5681;53.316;13.950;2023-04-30T02:08:24;5.80;;;3.17;;
11247;SDS011;5681;53.316;13.950;2023-04-30T02:10:51;11.90;;;3.63;;
11247;SDS011;5681;53.316;13.950;2023-04-30T02:13:17;10.57;;;3.50;;
11247;SDS011;5681;53.316;13.950;2023-04-30T02:15:45;13.13;;;3.97;;
11247;SDS011;5681;53.316;13.950;2023-04-30T02:18:11;9.53;;;3.70;;
11247;SDS011;5681;53.316;13.950;2023-04-30T02:20:37;12.37;;;3.80;;
11247;SDS011;5681;53.316;13.950;2023-04-30T02:23:04;8.67;;;3.83;;
11247;SDS011;5681;53.316;13.950;2023-04-30T02:25:30;8.43;;;3.90;;
11247;SDS011;5681;53.316;13.950;2023-04-30T02:28:01;8.83;;;3.83;;
11247;SDS011;5681;53.316;13.950;2023-04-30T02:30:28;10.57;;;4.03;;
11247;SDS011;5681;53.316;13.950;2023-04-30T02:32:55;9.43;;;3.93;;
11247;SDS011;5681;53.316;13.950;2023-04-30T02:35:22;8.47;;;3.47;;
11247;SDS011;5681;53.316;13.950;2023-04-30T02:37:48;9.63;;;3.60;;
11247;SDS011;5681;53.316;13.950;2023-04-30T02:40:14;6.87;;;3.43;;
11247;SDS011;5681;53.316;13.950;2023-04-30T02:42:41;8.13;;;3.40;;
11247;SDS011;5681;53.316;13.950;2023-04-30T02:45:07;9.07;;;3.77;;
11247;SDS011;5681;53.316;13.950;2023-04-30T02:47:34;13.67;;;3.87;;
11247;SDS011;5681;53.316;13.950;2023-04-30T02:50:02;11.07;;;3.47;;
11247;SDS011;5681;53.316;13.950;2023-04-30T02:52:29;8.10;;;3.67;;
11247;SDS011;5681;53.316;13.950;2023-04-30T02:54:55;8.80;;;3.60;;
11247;SDS011;5681;53.316;13.950;2023-04-30T02:57:22;9.97;;;3.83;;
11247;SDS011;5681;53.316;13.950;2023-04-30T02:59:48;13.97;;;4.60;;
11247;SDS011;5681;53.316;13.950;2023-04-30T03:02:14;11.93;;;4.07;;
11247;SDS011;5681;53.316;13.950;2023-04-30T03:04:45;10.00;;;3.47;;
11247;SDS011;5681;53.316;13.950;2023-04-30T03:07:12;12.73;;;3.50;;
11247;SDS011;5681;53.316;13.950;2023-04-30T03:09:38;9.00;;;3.80;;
11247;SDS011;5681;53.316;13.950;2023-04-30T03:12:05;10.77;;;4.07;;
11247;SDS011;5681;53.316;13.950;2023-04-30T03:14:31;14.93;;;3.97;;
11247;SDS011;5681;53.316;13.950;2023-04-30T03:16:58;11.47;;;4.13;;
11247;SDS011;5681;53.316;13.950;2023-04-30T03:19:24;9.80;;;3.70;;
11247;SDS011;5681;53.316;13.950;2023-04-30T03:21:50;13.07;;;4.17;;
11247;SDS011;5681;53.316;13.950;2023-04-30T03:24:18;11.37;;;4.17;;
11247;SDS011;5681;53.316;13.950;2023-04-30T03:26:45;6.87;;;3.90;;
11247;SDS011;5681;53.316;13.950;2023-04-30T03:29:11;11.50;;;4.33;;
11247;SDS011;5681;53.316;13.950;2023-04-30T03:31:37;10.73;;;5.03;;
11247;SDS011;5681;53.316;13.950;2023-04-30T03:34:04;11.63;;;4.30;;
11247;SDS011;5681;53.316;13.950;2023-04-30T03:36:30;11.50;;;4.07;;
11247;SDS011;5681;53.316;13.950;2023-04-30T03:38:57;10.70;;;4.47;;
11247;SDS011;5681;53.316;13.950;2023-04-30T03:41:25;11.73;;;4.50;;
11247;SDS011;5681;53.316;13.950;2023-04-30T03:43:51;10.73;;;4.53;;
11247;SDS011;5681;53.316;13.950;2023-04-30T03:46:18;12.37;;;4.60;;
11247;SDS011;5681;53.316;13.950;2023-04-30T03:48:44;12.83;;;4.97;;
11247;SDS011;5681;53.316;13.950;2023-04-30T03:51:11;12.40;;;4.33;;
11247;SDS011;5681;53.316;13.950;2023-04-30T03:53:37;8.93;;;4.40;;
11247;SDS011;5681;53.316;13.950;2023-04-30T03:56:04;12.00;;;4.00;;
11247;SDS011;5681;53.316;13.950;2023-04-30T03:58:32;8.03;;;4.60;;
11247;SDS011;5681;53.316;13.950;2023-04-30T04:00:58;10.63;;;5.53;;
11247;SDS011;5681;53.316;13.950;2023-04-30T04:03:25;10.67;;;4.60;;
11247;SDS011;5681;53.316;13.950;2023-04-30T04:05:51;8.27;;;4.20;;
11247;SDS011;5681;53.316;13.950;2023-04-30T04:08:17;14.27;;;4.63;;
11247;SDS011;5681;53.316;13.950;2023-04-30T04:10:44;10.70;;;5.30;;
11247;SDS011;5681;53.316;13.950;2023-04-30T04:13:10;16.30;;;6.13;;
11247;SDS011;5681;53.316;13.950;2023-04-30T04:15:38;13.50;;;5.80;;
11247;SDS011;5681;53.316;13.950;2023-04-30T04:18:04;12.53;;;5.50;;
11247;SDS011;5681;53.316;13.950;2023-04-30T04:20:31;14.23;;;5.03;;
11247;SDS011;5681;53.316;13.950;2023-04-30T04:22:58;15.67;;;6.77;;
11247;SDS011;5681;53.316;13.950;2023-04-30T04:25:24;15.50;;;5.53;;
11247;SDS011;5681;53.316;13.950;2023-04-30T04:27:51;14.67;;;5.40;;
11247;SDS011;5681;53.316;13.950;2023-04-30T04:30:17;15.77;;;5.27;;
11247;SDS011;5681;53.316;13.950;2023-04-30T04:32:45;13.47;;;5.10;;
11247;SDS011;5681;53.316;13.950;2023-04-30T04:35:12;10.57;;;4.43;;
11247;SDS011;5681;53.316;13.950;2023-04-30T04:37:38;20.83;;;5.80;;
11247;SDS011;5681;53.316;13.950;2023-04-30T04:40:06;14.10;;;8.23;;
11247;SDS011;5681;53.316;13.950;2023-04-30T04:42:34;14.17;;;6.40;;
11247;SDS011;5681;53.316;13.950;2023-04-30T04:45:01;11.67;;;5.50;;
11247;SDS011;5681;53.316;13.950;2023-04-30T04:47:28;12.00;;;5.03;;
11247;SDS011;5681;53.316;13.950;2023-04-30T04:49:56;11.50;;;5.00;;
11247;SDS011;5681;53.316;13.950;2023-04-30T04:52:23;13.77;;;5.20;;
11247;SDS011;5681;53.316;13.950;2023-04-30T04:54:49;16.40;;;5.27;;
11247;SDS011;5681;53.316;13.950;2023-04-30T04:57:15;11.67;;;5.17;;
11247;SDS011;5681;53.316;13.950;2023-04-30T04:59:42;12.10;;;5.20;;
11247;SDS011;5681;53.316;13.950;2023-04-30T05:02:08;10.67;;;4.90;;
11247;SDS011;5681;53.316;13.950;2023-04-30T05:04:34;12.10;;;4.90;;
11247;SDS011;5681;53.316;13.950;2023-04-30T05:07:02;15.20;;;5.03;;
11247;SDS011;5681;53.316;13.950;2023-04-30T05:09:28;15.20;;;5.33;;
11247;SDS011;5681;53.316;13.950;2023-04-30T05:11:54;17.67;;;5.47;;
11247;SDS011;5681;53.316;13.950;2023-04-30T05:14:21;14.53;;;4.80;;
11247;SDS011;5681;53.316;13.950;2023-04-30T05:16:47;14.80;;;4.87;;
11247;SDS011;5681;53.316;13.950;2023-04-30T05:19:13;11.30;;;5.00;;
11247;SDS011;5681;53.316;13.950;2023-04-30T05:21:43;15.37;;;5.60;;
11247;SDS011;5681;53.316;13.950;2023-04-30T05:24:10;14.63;;;5.37;;
11247;SDS011;5681;53.316;13.950;2023-04-30T05:26:37;19.60;;;5.37;;
11247;SDS011;5681;53.316;13.950;2023-04-30T05:29:03;9.63;;;4.93;;
11247;SDS011;5681;53.316;13.950;2023-04-30T05:31:29;15.13;;;5.30;;
11247;SDS011;5681;53.316;13.950;2023-04-30T05:33:56;11.40;;;5.23;;
11247;SDS011;5681;53.316;13.950;2023-04-30T05:36:22;15.70;;;5.20;;
11247;SDS011;5681;53.316;13.950;2023-04-30T05:38:49;13.77;;;5.37;;
11247;SDS011;5681;53.316;13.950;2023-04-30T05:41:17;12.17;;;5.37;;
11247;SDS011;5681;53.316;13.950;2023-04-30T05:43:43;19.83;;;4.90;;
11247;SDS011;5681;53.316;13.950;2023-04-30T05:46:09;13.20;;;4.80;;
11247;SDS011;5681;53.316;13.950;2023-04-30T05:48:36;14.30;;;4.27;;
11247;SDS011;5681;53.316;13.950;2023-04-30T05:51:03;12.73;;;4.57;;
11247;SDS011;5681;53.316;13.950;2023-04-30T05:53:30;16.80;;;4.40;;
11247;SDS011;5681;53.316;13.950;2023-04-30T05:55:57;13.57;;;4.97;;
11247;SDS011;5681;53.316;13.950;2023-04-30T05:58:25;14.27;;;4.67;;
11247;SDS011;5681;53.316;13.950;2023-04-30T06:00:52;13.83;;;4.80;;
11247;SDS011;5681;53.316;13.950;2023-04-30T06:03:18;13.33;;;4.70;;
11247;SDS011;5681;53.316;13.950;2023-04-30T06:05:45;13.73;;;5.20;;
11247;SDS011;5681;53.316;13.950;2023-04-30T06:08:11;12.43;;;4.43;;
11247;SDS011;5681;53.316;13.950;2023-04-30T06:10:38;11.20;;;5.10;;
11247;SDS011;5681;53.316;13.950;2023-04-30T06:13:04;8.03;;;4.20;;
11247;SDS011;5681;53.316;13.950;2023-04-30T06:15:32;12.82;;;4.10;;
11247;SDS011;5681;53.316;13.950;2023-04-30T06:17:58;15.52;;;4.40;;
11247;SDS011;5681;53.316;13.950;2023-04-30T06:20:25;8.88;;;4.18;;
11247;SDS011;5681;53.316;13.950;2023-04-30T06:22:52;12.02;;;3.92;;
11247;SDS011;5681;53.316;13.950;2023-04-30T06:25:18;13.23;;;3.97;;
11247;SDS011;5681;53.316;13.950;2023-04-30T06:27:45;11.85;;;4.07;;
11247;SDS011;5681;53.316;13.950;2023-04-30T06:30:12;10.55;;;4.20;;
11247;SDS011;5681;53.316;13.950;2023-04-30T06:32:39;10.98;;;4.05;;
11247;SDS011;5681;53.316;13.950;2023-04-30T06:35:06;10.35;;;3.85;;
11247;SDS011;5681;53.316;13.950;2023-04-30T06:37:33;12.63;;;4.07;;
11247;SDS011;5681;53.316;13.950;2023-04-30T06:40:01;16.65;;;4.15;;
11247;SDS011;5681;53.316;13.950;2023-04-30T06:42:28;11.32;;;3.92;;
11247;SDS011;5681;53.316;13.950;2023-04-30T06:44:58;11.13;;;3.38;;
11247;SDS011;5681;53.316;13.950;2023-04-30T06:47:25;8.45;;;3.90;;
11247;SDS011;5681;53.316;13.950;2023-04-30T06:49:52;11.60;;;3.67;;
11247;SDS011;5681;53.316;13.950;2023-04-30T06:52:19;14.60;;;4.15;;
11247;SDS011;5681;53.316;13.950;2023-04-30T06:54:45;12.45;;;3.70;;
11247;SDS011;5681;53.316;13.950;2023-04-30T06:57:11;8.70;;;3.58;;
11247;SDS011;5681;53.316;13.950;2023-04-30T06:59:38;15.07;;;4.03;;
11247;SDS011;5681;53.316;13.950;2023-04-30T07:02:04;10.95;;;4.35;;
11247;SDS011;5681;53.316;13.950;2023-04-30T07:04:31;10.20;;;3.13;;
11247;SDS011;5681;53.316;13.950;2023-04-30T07:07:06;9.25;;;3.75;;
11247;SDS011;5681;53.316;13.950;2023-04-30T07:09:32;10.88;;;3.97;;
11247;SDS011;5681;53.316;13.950;2023-04-30T07:11:59;7.35;;;3.03;;
11247;SDS011;5681;53.316;13.950;2023-04-30T07:14:25;9.27;;;3.30;;
11247;SDS011;5681;53.316;13.950;2023-04-30T07:16:51;11.15;;;3.67;;
11247;SDS011;5681;53.316;13.950;2023-04-30T07:19:18;10.38;;;3.22;;
11247;SDS011;5681;53.316;13.950;2023-04-30T07:21:45;13.27;;;3.92;;
11247;SDS011;5681;53.316;13.950;2023-04-30T07:24:12;12.82;;;3.88;;
11247;SDS011;5681;53.316;13.950;2023-04-30T07:26:40;8.18;;;3.35;;
11247;SDS011;5681;53.316;13.950;2023-04-30T07:29:10;11.77;;;3.47;;
11247;SDS011;5681;53.316;13.950;2023-04-30T07:31:36;7.32;;;3.50;;
11247;SDS011;5681;53.316;13.950;2023-04-30T07:34:03;10.45;;;3.40;;
11247;SDS011;5681;53.316;13.950;2023-04-30T07:36:29;5.70;;;2.88;;
11247;SDS011;5681;53.316;13.950;2023-04-30T07:38:55;10.77;;;3.13;;
11247;SDS011;5681;53.316;13.950;2023-04-30T07:41:24;8.55;;;3.28;;
11247;SDS011;5681;53.316;13.950;2023-04-30T07:43:50;7.15;;;3.45;;
11247;SDS011;5681;53.316;13.950;2023-04-30T07:46:17;8.32;;;3.25;;
11247;SDS011;5681;53.316;13.950;2023-04-30T07:48:43;10.25;;;3.40;;
11247;SDS011;5681;53.316;13.950;2023-04-30T07:51:10;6.35;;;2.70;;
11247;SDS011;5681;53.316;13.950;2023-04-30T07:53:36;7.50;;;3.10;;
11247;SDS011;5681;53.316;13.950;2023-04-30T07:56:02;8.98;;;3.17;;
11247;SDS011;5681;53.316;13.950;2023-04-30T07:58:30;8.55;;;3.00;;
11247;SDS011;5681;53.316;13.950;2023-04-30T08:00:57;8.35;;;2.58;;
11247;SDS011;5681;53.316;13.950;2023-04-30T08:03:23;6.40;;;3.22;;
11247;SDS011;5681;53.316;13.950;2023-04-30T08:05:50;8.13;;;3.03;;
11247;SDS011;5681;53.316;13.950;2023-04-30T08:08:17;7.05;;;3.10;;
11247;SDS011;5681;53.316;13.950;2023-04-30T08:10:43;7.30;;;3.17;;
11247;SDS011;5681;53.316;13.950;2023-04-30T08:13:10;6.65;;;3.13;;
11247;SDS011;5681;53.316;13.950;2023-04-30T08:15:37;6.22;;;2.70;;
11247;SDS011;5681;53.316;13.950;2023-04-30T08:18:04;8.35;;;3.47;;
11247;SDS011;5681;53.316;13.950;2023-04-30T08:20:30;6.40;;;2.78;;
11247;SDS011;5681;53.316;13.950;2023-04-30T08:22:57;7.40;;;2.83;;
11247;SDS011;5681;53.316;13.950;2023-04-30T08:25:23;9.93;;;3.03;;
11247;SDS011;5681;53.316;13.950;2023-04-30T08:27:50;7.13;;;3.13;;
11247;SDS011;5681;53.316;13.950;2023-04-30T08:30:16;7.70;;;2.78;;
11247;SDS011;5681;53.316;13.950;2023-04-30T08:32:44;10.27;;;3.15;;
11247;SDS011;5681;53.316;13.950;2023-04-30T08:35:10;9.85;;;3.10;;
11247;SDS011;5681;53.316;13.950;2023-04-30T08:37:37;10.93;;;3.22;;
11247;SDS011;5681;53.316;13.950;2023-04-30T08:40:03;7.20;;;2.85;;
11247;SDS011;5681;53.316;13.950;2023-04-30T08:42:34;12.98;;;3.88;;
11247;SDS011;5681;53.316;13.950;2023-04-30T08:45:02;10.13;;;3.22;;
11247;SDS011;5681;53.316;13.950;2023-04-30T08:47:29;7.85;;;2.70;;
11247;SDS011;5681;53.316;13.950;2023-04-30T08:49:57;6.35;;;2.75;;
11247;SDS011;5681;53.316;13.950;2023-04-30T08:52:23;5.35;;;2.67;;
11247;SDS011;5681;53.316;13.950;2023-04-30T08:54:50;9.52;;;3.05;;
11247;SDS011;5681;53.316;13.950;2023-04-30T08:57:18;6.22;;;3.00;;
11247;SDS011;5681;53.316;13.950;2023-04-30T08:59:44;6.70;;;3.20;;
11247;SDS011;5681;53.316;13.950;2023-04-30T09:02:11;7.53;;;3.42;;
11247;SDS011;5681;53.316;13.950;2023-04-30T09:04:38;8.07;;;3.15;;
11247;SDS011;5681;53.316;13.950;2023-04-30T09:07:05;7.18;;;2.65;;
11247;SDS011;5681;53.316;13.950;2023-04-30T09:09:36;7.25;;;3.30;;
11247;SDS011;5681;53.316;13.950;2023-04-30T09:12:10;7.65;;;3.03;;
11247;SDS011;5681;53.316;13.950;2023-04-30T09:14:38;5.88;;;2.75;;
11247;SDS011;5681;53.316;13.950;2023-04-30T09:17:05;6.22;;;2.75;;
11247;SDS011;5681;53.316;13.950;2023-04-30T09:19:32;5.60;;;2.80;;
11247;SDS011;5681;53.316;13.950;2023-04-30T09:22:08;4.40;;;2.75;;
11247;SDS011;5681;53.316;13.950;2023-04-30T09:24:45;4.03;;;2.17;;
11247;SDS011;5681;53.316;13.950;2023-04-30T09:27:16;4.28;;;2.22;;
11247;SDS011;5681;53.316;13.950;2023-04-30T09:29:43;8.57;;;2.47;;
11247;SDS011;5681;53.316;13.950;2023-04-30T09:32:10;6.72;;;2.38;;
11247;SDS011;5681;53.316;13.950;2023-04-30T09:34:36;6.75;;;2.53;;
11247;SDS011;5681;53.316;13.950;2023-04-30T09:37:03;8.07;;;2.63;;
11247;SDS011;5681;53.316;13.950;2023-04-30T09:39:30;4.63;;;2.20;;
11247;SDS011;5681;53.316;13.950;2023-04-30T09:42:06;5.03;;;2.10;;
11247;SDS011;5681;53.316;13.950;2023-04-30T09:44:35;3.90;;;2.60;;
11247;SDS011;5681;53.316;13.950;2023-04-30T09:47:02;7.75;;;2.22;;
11247;SDS011;5681;53.316;13.950;2023-04-30T09:49:29;6.07;;;2.50;;
11247;SDS011;5681;53.316;13.950;2023-04-30T09:51:56;4.35;;;2.17;;
11247;SDS011;5681;53.316;13.950;2023-04-30T09:54:24;5.57;;;2.15;;
11247;SDS011;5681;53.316;13.950;2023-04-30T09:56:53;4.70;;;2.05;;
11247;SDS011;5681;53.316;13.950;2023-04-30T09:59:22;8.07;;;2.17;;
11247;SDS011;5681;53.316;13.950;2023-04-30T10:01:54;5.90;;;2.10;;
11247;SDS011;5681;53.316;13.950;2023-04-30T10:04:21;5.35;;;2.20;;
11247;SDS011;5681;53.316;13.950;2023-04-30T10:06:49;6.22;;;2.30;;
11247;SDS011;5681;53.316;13.950;2023-04-30T10:09:17;5.13;;;2.63;;
11247;SDS011;5681;53.316;13.950;2023-04-30T10:11:43;4.05;;;2.28;;
11247;SDS011;5681;53.316;13.950;2023-04-30T10:14:12;4.90;;;2.33;;
11247;SDS011;5681;53.316;13.950;2023-04-30T10:16:42;7.78;;;2.75;;
11247;SDS011;5681;53.316;13.950;2023-04-30T10:19:11;5.63;;;2.58;;
11247;SDS011;5681;53.316;13.950;2023-04-30T10:21:41;5.53;;;2.30;;
11247;SDS011;5681;53.316;13.950;2023-04-30T10:24:07;4.90;;;2.40;;
11247;SDS011;5681;53.316;13.950;2023-04-30T10:26:34;6.43;;;2.42;;
11247;SDS011;5681;53.316;13.950;2023-04-30T10:29:00;5.45;;;2.42;;
11247;SDS011;5681;53.316;13.950;2023-04-30T10:31:28;6.97;;;2.70;;
11247;SDS011;5681;53.316;13.950;2023-04-30T10:33:58;5.90;;;2.42;;
11247;SDS011;5681;53.316;13.950;2023-04-30T10:36:32;6.35;;;2.83;;
11247;SDS011;5681;53.316;13.950;2023-04-30T10:39:03;6.35;;;2.40;;
11247;SDS011;5681;53.316;13.950;2023-04-30T10:41:30;7.03;;;2.60;;
11247;SDS011;5681;53.316;13.950;2023-04-30T10:43:56;5.28;;;2.67;;
11247;SDS011;5681;53.316;13.950;2023-04-30T10:46:23;4.57;;;2.47;;
11247;SDS011;5681;53.316;13.950;2023-04-30T10:48:52;5.50;;;2.75;;
11247;SDS011;5681;53.316;13.950;2023-04-30T10:51:19;8.85;;;2.53;;
11247;SDS011;5681;53.316;13.950;2023-04-30T10:53:47;5.13;;;2.67;;
11247;SDS011;5681;53.316;13.950;2023-04-30T10:56:16;5.95;;;2.85;;
11247;SDS011;5681;53.316;13.950;2023-04-30T10:58:57;9.48;;;2.65;;
11247;SDS011;5681;53.316;13.950;2023-04-30T11:01:24;7.53;;;2.72;;
11247;SDS011;5681;53.316;13.950;2023-04-30T11:04:03;7.63;;;2.72;;
11247;SDS011;5681;53.316;13.950;2023-04-30T11:09:15;4.50;;;2.40;;
11247;SDS011;5681;53.316;13.950;2023-04-30T11:11:42;6.20;;;2.80;;
11247;SDS011;5681;53.316;13.950;2023-04-30T11:14:10;7.50;;;3.08;;
11247;SDS011;5681;53.316;13.950;2023-04-30T11:16:36;4.57;;;2.28;;
11247;SDS011;5681;53.316;13.950;2023-04-30T11:19:08;5.93;;;2.60;;
11247;SDS011;5681;53.316;13.950;2023-04-30T11:21:39;4.57;;;2.30;;
11247;SDS011;5681;53.316;13.950;2023-04-30T11:24:05;4.95;;;2.55;;
11247;SDS011;5681;53.316;13.950;2023-04-30T11:29:34;6.18;;;2.67;;
11247;SDS011;5681;53.316;13.950;2023-04-30T11:32:01;4.03;;;2.38;;
11247;SDS011;5681;53.316;13.950;2023-04-30T11:34:30;3.85;;;2.58;;
11247;SDS011;5681;53.316;13.950;2023-04-30T11:36:59;5.10;;;2.50;;
11247;SDS011;5681;53.316;13.950;2023-04-30T11:39:26;5.20;;;2.55;;
11247;SDS011;5681;53.316;13.950;2023-04-30T11:41:53;4.20;;;2.25;;
11247;SDS011;5681;53.316;13.950;2023-04-30T11:44:24;5.75;;;2.30;;
11247;SDS011;5681;53.316;13.950;2023-04-30T11:46:51;3.53;;;2.00;;
11247;SDS011;5681;53.316;13.950;2023-04-30T11:49:19;5.78;;;2.40;;
11247;SDS011;5681;53.316;13.950;2023-04-30T11:51:48;5.47;;;2.17;;
11247;SDS011;5681;53.316;13.950;2023-04-30T11:54:15;3.67;;;2.40;;
11247;SDS011;5681;53.316;13.950;2023-04-30T11:56:44;5.82;;;2.25;;
11247;SDS011;5681;53.316;13.950;2023-04-30T11:59:12;3.13;;;1.90;;
11247;SDS011;5681;53.316;13.950;2023-04-30T12:01:39;5.35;;;2.20;;
11247;SDS011;5681;53.316;13.950;2023-04-30T12:04:05;4.85;;;2.20;;
11247;SDS011;5681;53.316;13.950;2023-04-30T12:06:33;5.63;;;2.50;;
11247;SDS011;5681;53.316;13.950;2023-04-30T12:09:02;5.90;;;2.63;;
11247;SDS011;5681;53.316;13.950;2023-04-30T12:11:31;6.47;;;2.40;;
11247;SDS011;5681;53.316;13.950;2023-04-30T12:13:59;6.35;;;2.47;;
11247;SDS011;5681;53.316;13.950;2023-04-30T12:16:37;5.97;;;2.42;;
11247;SDS011;5681;53.316;13.950;2023-04-30T12:19:05;6.53;;;2.13;;
11247;SDS011;5681;53.316;13.950;2023-04-30T12:21:31;5.20;;;2.17;;
11247;SDS011;5681;53.316;13.950;2023-04-30T12:23:58;4.40;;;2.00;;
11247;SDS011;5681;53.316;13.950;2023-04-30T12:26:34;5.68;;;1.80;;
11247;SDS011;5681;53.316;13.950;2023-04-30T12:29:02;3.63;;;1.80;;
11247;SDS011;5681;53.316;13.950;2023-04-30T12:31:30;4.13;;;2.00;;
11247;SDS011;5681;53.316;13.950;2023-04-30T12:33:57;7.15;;;2.42;;
11247;SDS011;5681;53.316;13.950;2023-04-30T12:36:30;5.38;;;1.75;;
11247;SDS011;5681;53.316;13.950;2023-04-30T12:41:43;5.28;;;1.90;;
11247;SDS011;5681;53.316;13.950;2023-04-30T12:44:18;4.07;;;1.80;;
11247;SDS011;5681;53.316;13.950;2023-04-30T12:46:47;4.20;;;1.70;;
11247;SDS011;5681;53.316;13.950;2023-04-30T12:49:21;3.90;;;1.83;;
11247;SDS011;5681;53.316;13.950;2023-04-30T12:51:49;3.72;;;1.80;;
11247;SDS011;5681;53.316;13.950;2023-04-30T12:54:23;2.47;;;1.52;;
11247;SDS011;5681;53.316;13.950;2023-04-30T12:57:01;3.72;;;1.83;;
11247;SDS011;5681;53.316;13.950;2023-04-30T12:59:28;4.75;;;1.70;;
11247;SDS011;5681;53.316;13.950;2023-04-30T13:02:03;3.63;;;1.60;;
11247;SDS011;5681;53.316;13.950;2023-04-30T13:04:31;5.00;;;1.90;;
11247;SDS011;5681;53.316;13.950;2023-04-30T13:06:57;2.65;;;1.65;;
11247;SDS011;5681;53.316;13.950;2023-04-30T13:09:24;5.97;;;2.10;;
11247;SDS011;5681;53.316;13.950;2023-04-30T13:11:50;6.53;;;2.05;;
11247;SDS011;5681;53.316;13.950;2023-04-30T13:14:18;2.92;;;1.70;;
11247;SDS011;5681;53.316;13.950;2023-04-30T13:16:44;5.05;;;2.00;;
11247;SDS011;5681;53.316;13.950;2023-04-30T13:19:11;5.30;;;2.10;;
11247;SDS011;5681;53.316;13.950;2023-04-30T13:21:38;5.03;;;2.08;;
11247;SDS011;5681;53.316;13.950;2023-04-30T13:24:04;4.53;;;1.83;;
11247;SDS011;5681;53.316;13.950;2023-04-30T13:26:31;6.18;;;2.00;;
11247;SDS011;5681;53.316;13.950;2023-04-30T13:28:57;4.72;;;1.92;;
11247;SDS011;5681;53.316;13.950;2023-04-30T13:31:25;3.40;;;1.60;;
11247;SDS011;5681;53.316;13.950;2023-04-30T13:33:51;3.83;;;1.65;;
11247;SDS011;5681;53.316;13.950;2023-04-30T13:36:18;4.50;;;1.77;;
11247;SDS011;5681;53.316;13.950;2023-04-30T13:38:45;4.35;;;1.60;;
11247;SDS011;5681;53.316;13.950;2023-04-30T13:41:12;3.53;;;1.70;;
11247;SDS011;5681;53.316;13.950;2023-04-30T13:43:38;4.10;;;2.05;;
11247;SDS011;5681;53.316;13.950;2023-04-30T13:46:06;3.53;;;1.70;;
11247;SDS011;5681;53.316;13.950;2023-04-30T13:48:34;4.80;;;2.17;;
11247;SDS011;5681;53.316;13.950;2023-04-30T13:51:00;3.30;;;1.77;;
11247;SDS011;5681;53.316;13.950;2023-04-30T13:53:26;4.13;;;1.70;;
11247;SDS011;5681;53.316;13.950;2023-04-30T13:55:53;5.68;;;1.83;;
11247;SDS011;5681;53.316;13.950;2023-04-30T13:58:19;5.05;;;1.83;;
11247;SDS011;5681;53.316;13.950;2023-04-30T14:00:46;4.50;;;1.83;;
11247;SDS011;5681;53.316;13.950;2023-04-30T14:03:13;3.92;;;1.80;;
11247;SDS011;5681;53.316;13.950;2023-04-30T14:05:41;7.70;;;2.08;;
11247;SDS011;5681;53.316;13.950;2023-04-30T14:08:07;6.20;;;2.00;;
11247;SDS011;5681;53.316;13.950;2023-04-30T14:10:36;3.13;;;1.67;;
11247;SDS011;5681;53.316;13.950;2023-04-30T14:13:03;3.88;;;1.75;;
11247;SDS011;5681;53.316;13.950;2023-04-30T14:15:29;3.35;;;1.92;;
11247;SDS011;5681;53.316;13.950;2023-04-30T14:17:56;3.60;;;1.70;;
11247;SDS011;5681;53.316;13.950;2023-04-30T14:20:22;4.15;;;1.70;;
11247;SDS011;5681;53.316;13.950;2023-04-30T14:22:51;3.22;;;1.83;;
11247;SDS011;5681;53.316;13.950;2023-04-30T14:25:17;3.78;;;2.08;;
11247;SDS011;5681;53.316;13.950;2023-04-30T14:27:45;5.95;;;1.92;;
11247;SDS011;5681;53.316;13.950;2023-04-30T14:30:12;6.18;;;1.85;;
11247;SDS011;5681;53.316;13.950;2023-04-30T14:32:38;5.60;;;1.85;;
11247;SDS011;5681;53.316;13.950;2023-04-30T14:35:05;4.65;;;1.55;;
11247;SDS011;5681;53.316;13.950;2023-04-30T14:37:33;5.80;;;2.10;;
11247;SDS011;5681;53.316;13.950;2023-04-30T14:40:01;4.45;;;2.13;;
11247;SDS011;5681;53.316;13.950;2023-04-30T14:42:31;5.60;;;2.30;;
11247;SDS011;5681;53.316;13.950;2023-04-30T14:44:58;5.78;;;1.88;;
11247;SDS011;5681;53.316;13.950;2023-04-30T14:47:24;2.88;;;1.95;;
11247;SDS011;5681;53.316;13.950;2023-04-30T14:49:51;6.28;;;2.00;;
11247;SDS011;5681;53.316;13.950;2023-04-30T14:52:17;3.90;;;1.70;;
11247;SDS011;5681;53.316;13.950;2023-04-30T14:54:44;2.85;;;1.50;;